sensor_id;sensor_type;location;lat;lon;timestamp;P1;durP1;ratioP1;P2;durP2;ratioP2
15356;SDS011;7778;48.792;9.260;2023-04-19T00:01:48;8.25;;;4.93;;
15356;SDS011;7778;48.792;9.260;2023-04-19T00:04:40;12.30;;;7.20;;
15356;SDS011;7778;48.792;9.260;2023-04-19T00:07:49;12.57;;;6.47;;
15356;SDS011;7778;48.792;9.260;2023-04-19T00:11:00;13.57;;;6.65;;
15356;SDS011;7778;48.792;9.260;2023-04-19T00:14:06;13.95;;;7.90;;
15356;SDS011;7778;48.792;9.260;2023-04-19T00:16:52;12.70;;;7.35;;
15356;SDS011;7778;48.792;9.260;2023-04-19T00:19:38;9.77;;;6.38;;
15356;SDS011;7778;48.792;9.260;2023-04-19T00:22:24;14.13;;;7.88;;
15356;SDS011;7778;48.792;9.260;2023-04-19T00:25:10;13.73;;;7.82;;
15356;SDS011;7778;48.792;9.260;2023-04-19T00:27:57;10.73;;;6.35;;
15356;SDS011;7778;48.792;9.260;2023-04-19T00:30:43;11.52;;;6.32;;
15356;SDS011;7778;48.792;9.260;2023-04-19T00:33:28;15.27;;;8.02;;
15356;SDS011;7778;48.792;9.260;2023-04-19T00:36:14;11.13;;;6.45;;
15356;SDS011;7778;48.792;9.260;2023-04-19T00:38:59;13.18;;;6.97;;
15356;SDS011;7778;48.792;9.260;2023-04-19T00:41:45;14.65;;;7.72;;
15356;SDS011;7778;48.792;9.260;2023-04-19T00:44:32;13.85;;;7.93;;
15356;SDS011;7778;48.792;9.260;2023-04-19T00:47:17;10.85;;;7.40;;
15356;SDS011;7778;48.792;9.260;2023-04-19T00:50:03;11.48;;;6.70;;
15356;SDS011;7778;48.792;9.260;2023-04-19T00:52:53;10.63;;;6.40;;
15356;SDS011;7778;48.792;9.260;2023-04-19T00:55:49;10.85;;;6.65;;
15356;SDS011;7778;48.792;9.260;2023-04-19T00:58:59;13.43;;;7.00;;
15356;SDS011;7778;48.792;9.260;2023-04-19T01:01:52;14.13;;;7.60;;
15356;SDS011;7778;48.792;9.260;2023-04-19T01:05:01;16.00;;;9.07;;
15356;SDS011;7778;48.792;9.260;2023-04-19T01:08:01;12.68;;;7.80;;
15356;SDS011;7778;48.792;9.260;2023-04-19T01:11:03;13.13;;;7.20;;
15356;SDS011;7778;48.792;9.260;2023-04-19T01:14:11;12.15;;;7.40;;
15356;SDS011;7778;48.792;9.260;2023-04-19T01:17:02;12.23;;;7.25;;
15356;SDS011;7778;48.792;9.260;2023-04-19T01:20:05;12.30;;;7.40;;
15356;SDS011;7778;48.792;9.260;2023-04-19T01:23:16;12.05;;;6.45;;
15356;SDS011;7778;48.792;9.260;2023-04-19T01:26:02;13.43;;;7.15;;
15356;SDS011;7778;48.792;9.260;2023-04-19T01:29:05;15.93;;;8.40;;
15356;SDS011;7778;48.792;9.260;2023-04-19T01:31:59;11.52;;;7.20;;
15356;SDS011;7778;48.792;9.260;2023-04-19T01:34:50;14.45;;;7.40;;
15356;SDS011;7778;48.792;9.260;2023-04-19T01:38:02;11.80;;;7.45;;
15356;SDS011;7778;48.792;9.260;2023-04-19T01:41:23;11.55;;;7.28;;
15356;SDS011;7778;48.792;9.260;2023-04-19T01:44:40;14.73;;;8.90;;
15356;SDS011;7778;48.792;9.260;2023-04-19T01:47:46;12.05;;;6.60;;
15356;SDS011;7778;48.792;9.260;2023-04-19T01:50:38;13.32;;;7.68;;
15356;SDS011;7778;48.792;9.260;2023-04-19T01:53:38;14.40;;;8.05;;
15356;SDS011;7778;48.792;9.260;2023-04-19T01:56:46;14.68;;;7.78;;
15356;SDS011;7778;48.792;9.260;2023-04-19T01:59:48;14.70;;;8.18;;
15356;SDS011;7778;48.792;9.260;2023-04-19T02:02:47;14.25;;;7.72;;
15356;SDS011;7778;48.792;9.260;2023-04-19T02:05:42;11.75;;;7.25;;
15356;SDS011;7778;48.792;9.260;2023-04-19T02:08:48;13.23;;;8.02;;
15356;SDS011;7778;48.792;9.260;2023-04-19T02:11:41;15.27;;;8.25;;
15356;SDS011;7778;48.792;9.260;2023-04-19T02:14:49;13.00;;;7.95;;
15356;SDS011;7778;48.792;9.260;2023-04-19T02:17:53;16.60;;;7.40;;
15356;SDS011;7778;48.792;9.260;2023-04-19T02:20:51;13.25;;;7.28;;
15356;SDS011;7778;48.792;9.260;2023-04-19T02:23:43;13.00;;;7.50;;
15356;SDS011;7778;48.792;9.260;2023-04-19T02:26:49;13.32;;;7.88;;
15356;SDS011;7778;48.792;9.260;2023-04-19T02:30:10;14.68;;;7.93;;
15356;SDS011;7778;48.792;9.260;2023-04-19T02:33:28;13.98;;;7.65;;
15356;SDS011;7778;48.792;9.260;2023-04-19T02:40:00;12.70;;;7.03;;
15356;SDS011;7778;48.792;9.260;2023-04-19T02:42:49;13.60;;;8.20;;
15356;SDS011;7778;48.792;9.260;2023-04-19T02:45:35;12.77;;;7.78;;
15356;SDS011;7778;48.792;9.260;2023-04-19T02:48:20;15.95;;;9.27;;
15356;SDS011;7778;48.792;9.260;2023-04-19T02:51:06;15.15;;;8.15;;
15356;SDS011;7778;48.792;9.260;2023-04-19T02:53:52;13.15;;;7.57;;
15356;SDS011;7778;48.792;9.260;2023-04-19T02:56:37;11.93;;;7.60;;
15356;SDS011;7778;48.792;9.260;2023-04-19T02:59:24;15.00;;;8.32;;
15356;SDS011;7778;48.792;9.260;2023-04-19T03:02:10;14.55;;;8.40;;
15356;SDS011;7778;48.792;9.260;2023-04-19T03:04:55;15.25;;;8.07;;
15356;SDS011;7778;48.792;9.260;2023-04-19T03:07:41;14.57;;;8.35;;
15356;SDS011;7778;48.792;9.260;2023-04-19T03:10:26;12.52;;;7.65;;
15356;SDS011;7778;48.792;9.260;2023-04-19T03:13:12;13.80;;;8.30;;
15356;SDS011;7778;48.792;9.260;2023-04-19T03:15:59;15.07;;;8.15;;
15356;SDS011;7778;48.792;9.260;2023-04-19T03:18:44;14.05;;;8.85;;
15356;SDS011;7778;48.792;9.260;2023-04-19T03:21:30;14.70;;;8.57;;
15356;SDS011;7778;48.792;9.260;2023-04-19T03:24:17;16.70;;;8.25;;
15356;SDS011;7778;48.792;9.260;2023-04-19T03:27:02;17.25;;;8.60;;
15356;SDS011;7778;48.792;9.260;2023-04-19T03:29:48;16.13;;;9.05;;
15356;SDS011;7778;48.792;9.260;2023-04-19T03:32:35;14.00;;;7.75;;
15356;SDS011;7778;48.792;9.260;2023-04-19T03:35:20;15.00;;;9.05;;
15356;SDS011;7778;48.792;9.260;2023-04-19T03:38:08;15.80;;;8.30;;
15356;SDS011;7778;48.792;9.260;2023-04-19T03:40:54;15.05;;;9.20;;
15356;SDS011;7778;48.792;9.260;2023-04-19T03:43:40;16.77;;;8.85;;
15356;SDS011;7778;48.792;9.260;2023-04-19T03:46:25;17.35;;;9.43;;
15356;SDS011;7778;48.792;9.260;2023-04-19T03:49:15;14.25;;;8.88;;
15356;SDS011;7778;48.792;9.260;2023-04-19T03:52:01;18.08;;;8.98;;
15356;SDS011;7778;48.792;9.260;2023-04-19T03:54:46;13.80;;;7.88;;
15356;SDS011;7778;48.792;9.260;2023-04-19T03:57:32;13.70;;;8.85;;
15356;SDS011;7778;48.792;9.260;2023-04-19T04:00:17;15.88;;;9.23;;
15356;SDS011;7778;48.792;9.260;2023-04-19T04:03:03;14.55;;;8.38;;
15356;SDS011;7778;48.792;9.260;2023-04-19T04:05:50;16.38;;;9.32;;
15356;SDS011;7778;48.792;9.260;2023-04-19T04:08:36;14.57;;;8.18;;
15356;SDS011;7778;48.792;9.260;2023-04-19T04:11:21;16.35;;;9.23;;
15356;SDS011;7778;48.792;9.260;2023-04-19T04:14:08;14.25;;;8.57;;
15356;SDS011;7778;48.792;9.260;2023-04-19T04:16:53;16.00;;;8.65;;
15356;SDS011;7778;48.792;9.260;2023-04-19T04:19:39;16.60;;;9.13;;
15356;SDS011;7778;48.792;9.260;2023-04-19T04:22:26;13.18;;;8.35;;
15356;SDS011;7778;48.792;9.260;2023-04-19T04:25:11;17.70;;;10.43;;
15356;SDS011;7778;48.792;9.260;2023-04-19T04:27:58;16.70;;;9.82;;
15356;SDS011;7778;48.792;9.260;2023-04-19T04:30:44;17.67;;;10.20;;
15356;SDS011;7778;48.792;9.260;2023-04-19T04:33:29;15.10;;;8.65;;
15356;SDS011;7778;48.792;9.260;2023-04-19T04:36:15;15.77;;;8.82;;
15356;SDS011;7778;48.792;9.260;2023-04-19T04:39:02;17.45;;;9.88;;
15356;SDS011;7778;48.792;9.260;2023-04-19T04:41:48;19.45;;;9.23;;
15356;SDS011;7778;48.792;9.260;2023-04-19T04:44:34;16.67;;;10.32;;
15356;SDS011;7778;48.792;9.260;2023-04-19T04:47:20;16.75;;;9.60;;
15356;SDS011;7778;48.792;9.260;2023-04-19T04:50:06;13.77;;;8.95;;
15356;SDS011;7778;48.792;9.260;2023-04-19T04:52:53;17.90;;;9.65;;
15356;SDS011;7778;48.792;9.260;2023-04-19T04:55:40;19.40;;;10.57;;
15356;SDS011;7778;48.792;9.260;2023-04-19T04:58:25;16.48;;;10.15;;
15356;SDS011;7778;48.792;9.260;2023-04-19T05:01:11;17.05;;;9.73;;
15356;SDS011;7778;48.792;9.260;2023-04-19T05:03:57;17.85;;;9.68;;
15356;SDS011;7778;48.792;9.260;2023-04-19T05:06:42;16.42;;;9.68;;
15356;SDS011;7778;48.792;9.260;2023-04-19T05:09:28;16.15;;;9.68;;
15356;SDS011;7778;48.792;9.260;2023-04-19T05:12:15;15.27;;;8.77;;
15356;SDS011;7778;48.792;9.260;2023-04-19T05:15:00;18.13;;;10.43;;
15356;SDS011;7778;48.792;9.260;2023-04-19T05:17:46;20.33;;;10.57;;
15356;SDS011;7778;48.792;9.260;2023-04-19T05:20:32;18.90;;;10.70;;
15356;SDS011;7778;48.792;9.260;2023-04-19T05:23:17;19.02;;;10.25;;
15356;SDS011;7778;48.792;9.260;2023-04-19T05:26:04;15.77;;;9.57;;
15356;SDS011;7778;48.792;9.260;2023-04-19T05:28:51;20.00;;;10.32;;
15356;SDS011;7778;48.792;9.260;2023-04-19T05:31:36;19.00;;;10.18;;
15356;SDS011;7778;48.792;9.260;2023-04-19T05:34:22;19.58;;;10.20;;
15356;SDS011;7778;48.792;9.260;2023-04-19T05:37:08;16.25;;;8.98;;
15356;SDS011;7778;48.792;9.260;2023-04-19T05:39:54;17.48;;;10.65;;
15356;SDS011;7778;48.792;9.260;2023-04-19T05:42:39;17.95;;;9.98;;
15356;SDS011;7778;48.792;9.260;2023-04-19T05:45:27;18.67;;;9.45;;
15356;SDS011;7778;48.792;9.260;2023-04-19T05:48:13;15.98;;;9.35;;
15356;SDS011;7778;48.792;9.260;2023-04-19T05:50:59;16.02;;;9.70;;
15356;SDS011;7778;48.792;9.260;2023-04-19T05:53:44;16.05;;;8.98;;
15356;SDS011;7778;48.792;9.260;2023-04-19T05:56:30;18.55;;;10.25;;
15356;SDS011;7778;48.792;9.260;2023-04-19T05:59:15;19.27;;;10.05;;
15356;SDS011;7778;48.792;9.260;2023-04-19T06:02:02;15.70;;;8.57;;
15356;SDS011;7778;48.792;9.260;2023-04-19T06:04:48;19.02;;;9.82;;
15356;SDS011;7778;48.792;9.260;2023-04-19T06:07:34;17.23;;;9.57;;
15356;SDS011;7778;48.792;9.260;2023-04-19T06:10:20;15.38;;;9.25;;
15356;SDS011;7778;48.792;9.260;2023-04-19T06:13:05;18.08;;;9.50;;
15356;SDS011;7778;48.792;9.260;2023-04-19T06:15:51;14.45;;;8.75;;
15356;SDS011;7778;48.792;9.260;2023-04-19T06:18:38;15.18;;;9.55;;
15356;SDS011;7778;48.792;9.260;2023-04-19T06:21:25;15.13;;;9.43;;
15356;SDS011;7778;48.792;9.260;2023-04-19T06:24:13;16.33;;;9.00;;
15356;SDS011;7778;48.792;9.260;2023-04-19T06:26:59;16.60;;;9.43;;
15356;SDS011;7778;48.792;9.260;2023-04-19T06:29:45;18.23;;;9.30;;
15356;SDS011;7778;48.792;9.260;2023-04-19T06:32:30;16.42;;;8.80;;
15356;SDS011;7778;48.792;9.260;2023-04-19T06:35:17;15.10;;;9.20;;
15356;SDS011;7778;48.792;9.260;2023-04-19T06:38:03;14.25;;;8.13;;
15356;SDS011;7778;48.792;9.260;2023-04-19T06:40:49;14.18;;;8.43;;
15356;SDS011;7778;48.792;9.260;2023-04-19T06:43:35;17.30;;;9.25;;
15356;SDS011;7778;48.792;9.260;2023-04-19T06:46:22;14.23;;;8.50;;
15356;SDS011;7778;48.792;9.260;2023-04-19T06:49:07;17.60;;;8.80;;
15356;SDS011;7778;48.792;9.260;2023-04-19T06:51:54;17.27;;;8.88;;
15356;SDS011;7778;48.792;9.260;2023-04-19T06:54:40;14.43;;;8.32;;
15356;SDS011;7778;48.792;9.260;2023-04-19T06:57:25;18.77;;;9.32;;
15356;SDS011;7778;48.792;9.260;2023-04-19T07:00:12;14.40;;;8.40;;
15356;SDS011;7778;48.792;9.260;2023-04-19T07:02:58;13.82;;;8.20;;
15356;SDS011;7778;48.792;9.260;2023-04-19T07:05:44;13.35;;;8.63;;
15356;SDS011;7778;48.792;9.260;2023-04-19T07:08:31;13.88;;;7.88;;
15356;SDS011;7778;48.792;9.260;2023-04-19T07:11:16;12.80;;;8.10;;
15356;SDS011;7778;48.792;9.260;2023-04-19T07:14:02;16.27;;;8.25;;
15356;SDS011;7778;48.792;9.260;2023-04-19T07:16:47;18.75;;;8.15;;
15356;SDS011;7778;48.792;9.260;2023-04-19T07:19:33;16.40;;;7.82;;
15356;SDS011;7778;48.792;9.260;2023-04-19T07:22:19;13.80;;;8.60;;
15356;SDS011;7778;48.792;9.260;2023-04-19T07:25:07;11.88;;;6.93;;
15356;SDS011;7778;48.792;9.260;2023-04-19T07:27:54;12.40;;;7.55;;
15356;SDS011;7778;48.792;9.260;2023-04-19T07:30:40;15.60;;;8.70;;
15356;SDS011;7778;48.792;9.260;2023-04-19T07:33:28;12.38;;;7.60;;
15356;SDS011;7778;48.792;9.260;2023-04-19T07:36:14;11.45;;;7.28;;
15356;SDS011;7778;48.792;9.260;2023-04-19T07:39:00;12.75;;;8.07;;
15356;SDS011;7778;48.792;9.260;2023-04-19T07:41:47;14.30;;;7.57;;
15356;SDS011;7778;48.792;9.260;2023-04-19T07:44:32;12.75;;;7.68;;
15356;SDS011;7778;48.792;9.260;2023-04-19T07:47:18;12.43;;;7.50;;
15356;SDS011;7778;48.792;9.260;2023-04-19T07:50:04;11.57;;;7.30;;
15356;SDS011;7778;48.792;9.260;2023-04-19T07:52:52;15.85;;;8.57;;
15356;SDS011;7778;48.792;9.260;2023-04-19T07:55:38;11.55;;;7.35;;
15356;SDS011;7778;48.792;9.260;2023-04-19T07:58:25;11.45;;;6.15;;
15356;SDS011;7778;48.792;9.260;2023-04-19T08:01:11;11.98;;;6.63;;
15356;SDS011;7778;48.792;9.260;2023-04-19T08:03:56;10.60;;;7.00;;
15356;SDS011;7778;48.792;9.260;2023-04-19T08:06:42;12.23;;;7.25;;
15356;SDS011;7778;48.792;9.260;2023-04-19T08:09:32;9.40;;;6.03;;
15356;SDS011;7778;48.792;9.260;2023-04-19T08:12:17;11.65;;;5.15;;
15356;SDS011;7778;48.792;9.260;2023-04-19T08:15:08;11.82;;;6.63;;
15356;SDS011;7778;48.792;9.260;2023-04-19T08:17:54;11.27;;;6.05;;
15356;SDS011;7778;48.792;9.260;2023-04-19T08:20:42;9.98;;;6.00;;
15356;SDS011;7778;48.792;9.260;2023-04-19T08:23:30;9.52;;;5.75;;
15356;SDS011;7778;48.792;9.260;2023-04-19T08:26:15;10.40;;;5.80;;
15356;SDS011;7778;48.792;9.260;2023-04-19T08:29:01;9.70;;;6.00;;
15356;SDS011;7778;48.792;9.260;2023-04-19T08:31:50;10.35;;;5.18;;
15356;SDS011;7778;48.792;9.260;2023-04-19T08:34:36;9.55;;;5.80;;
15356;SDS011;7778;48.792;9.260;2023-04-19T08:37:23;11.38;;;6.38;;
15356;SDS011;7778;48.792;9.260;2023-04-19T08:40:08;11.43;;;6.82;;
15356;SDS011;7778;48.792;9.260;2023-04-19T08:42:55;11.20;;;6.10;;
15356;SDS011;7778;48.792;9.260;2023-04-19T08:45:41;9.60;;;4.80;;
15356;SDS011;7778;48.792;9.260;2023-04-19T08:48:28;10.20;;;5.95;;
15356;SDS011;7778;48.792;9.260;2023-04-19T08:51:15;9.38;;;5.70;;
15356;SDS011;7778;48.792;9.260;2023-04-19T08:54:03;6.97;;;3.67;;
15356;SDS011;7778;48.792;9.260;2023-04-19T08:56:51;8.52;;;5.20;;
15356;SDS011;7778;48.792;9.260;2023-04-19T08:59:37;9.13;;;5.80;;
15356;SDS011;7778;48.792;9.260;2023-04-19T09:02:23;7.32;;;4.20;;
15356;SDS011;7778;48.792;9.260;2023-04-19T09:05:11;9.20;;;5.57;;
15356;SDS011;7778;48.792;9.260;2023-04-19T09:08:04;10.43;;;6.80;;
15356;SDS011;7778;48.792;9.260;2023-04-19T09:11:06;8.98;;;4.78;;
15356;SDS011;7778;48.792;9.260;2023-04-19T09:13:52;9.30;;;5.22;;
15356;SDS011;7778;48.792;9.260;2023-04-19T09:16:52;10.77;;;5.43;;
15356;SDS011;7778;48.792;9.260;2023-04-19T09:19:44;9.27;;;6.07;;
15356;SDS011;7778;48.792;9.260;2023-04-19T09:22:34;9.15;;;5.40;;
15356;SDS011;7778;48.792;9.260;2023-04-19T09:25:24;10.65;;;6.00;;
15356;SDS011;7778;48.792;9.260;2023-04-19T09:28:11;12.35;;;6.35;;
15356;SDS011;7778;48.792;9.260;2023-04-19T09:30:57;11.45;;;6.70;;
15356;SDS011;7778;48.792;9.260;2023-04-19T09:33:56;15.02;;;8.63;;
15356;SDS011;7778;48.792;9.260;2023-04-19T09:36:42;11.40;;;6.85;;
15356;SDS011;7778;48.792;9.260;2023-04-19T09:39:30;10.32;;;6.72;;
15356;SDS011;7778;48.792;9.260;2023-04-19T09:42:18;10.75;;;6.63;;
15356;SDS011;7778;48.792;9.260;2023-04-19T09:45:05;9.70;;;6.22;;
15356;SDS011;7778;48.792;9.260;2023-04-19T09:48:00;11.75;;;6.97;;
15356;SDS011;7778;48.792;9.260;2023-04-19T09:50:51;9.25;;;5.57;;
15356;SDS011;7778;48.792;9.260;2023-04-19T09:53:39;11.85;;;6.32;;
15356;SDS011;7778;48.792;9.260;2023-04-19T09:56:27;9.32;;;6.05;;
15356;SDS011;7778;48.792;9.260;2023-04-19T09:59:13;10.57;;;6.10;;
15356;SDS011;7778;48.792;9.260;2023-04-19T10:01:59;9.35;;;5.68;;
15356;SDS011;7778;48.792;9.260;2023-04-19T10:04:46;10.25;;;5.13;;
15356;SDS011;7778;48.792;9.260;2023-04-19T10:07:32;10.10;;;6.47;;
15356;SDS011;7778;48.792;9.260;2023-04-19T10:10:21;8.95;;;5.45;;
15356;SDS011;7778;48.792;9.260;2023-04-19T10:13:11;9.32;;;5.75;;
15356;SDS011;7778;48.792;9.260;2023-04-19T10:15:58;12.48;;;5.05;;
15356;SDS011;7778;48.792;9.260;2023-04-19T10:18:46;7.18;;;5.35;;
15356;SDS011;7778;48.792;9.260;2023-04-19T10:21:35;9.90;;;5.40;;
15356;SDS011;7778;48.792;9.260;2023-04-19T10:24:22;8.20;;;5.00;;
15356;SDS011;7778;48.792;9.260;2023-04-19T10:27:14;7.82;;;5.07;;
15356;SDS011;7778;48.792;9.260;2023-04-19T10:30:02;8.77;;;4.75;;
15356;SDS011;7778;48.792;9.260;2023-04-19T10:32:53;8.10;;;4.93;;
15356;SDS011;7778;48.792;9.260;2023-04-19T10:35:41;9.00;;;5.70;;
15356;SDS011;7778;48.792;9.260;2023-04-19T10:38:35;10.43;;;6.25;;
15356;SDS011;7778;48.792;9.260;2023-04-19T10:41:24;11.18;;;6.40;;
15356;SDS011;7778;48.792;9.260;2023-04-19T10:44:41;8.63;;;5.63;;
15356;SDS011;7778;48.792;9.260;2023-04-19T10:47:40;10.10;;;5.68;;
15356;SDS011;7778;48.792;9.260;2023-04-19T10:50:28;8.50;;;5.57;;
15356;SDS011;7778;48.792;9.260;2023-04-19T10:53:46;13.20;;;5.47;;
15356;SDS011;7778;48.792;9.260;2023-04-19T10:56:57;10.50;;;5.95;;
15356;SDS011;7778;48.792;9.260;2023-04-19T10:59:48;9.77;;;5.85;;
15356;SDS011;7778;48.792;9.260;2023-04-19T11:06:36;12.10;;;6.15;;
15356;SDS011;7778;48.792;9.260;2023-04-19T11:09:43;10.02;;;5.47;;
15356;SDS011;7778;48.792;9.260;2023-04-19T11:12:29;10.05;;;5.45;;
15356;SDS011;7778;48.792;9.260;2023-04-19T11:15:15;9.73;;;5.68;;
15356;SDS011;7778;48.792;9.260;2023-04-19T11:18:01;7.78;;;5.20;;
15356;SDS011;7778;48.792;9.260;2023-04-19T11:20:52;13.05;;;6.80;;
15356;SDS011;7778;48.792;9.260;2023-04-19T11:23:38;11.50;;;6.32;;
15356;SDS011;7778;48.792;9.260;2023-04-19T11:26:23;13.82;;;6.28;;
15356;SDS011;7778;48.792;9.260;2023-04-19T11:29:09;10.25;;;6.15;;
15356;SDS011;7778;48.792;9.260;2023-04-19T11:31:55;10.05;;;5.55;;
15356;SDS011;7778;48.792;9.260;2023-04-19T11:34:40;9.93;;;6.47;;
15356;SDS011;7778;48.792;9.260;2023-04-19T11:37:32;9.88;;;6.38;;
15356;SDS011;7778;48.792;9.260;2023-04-19T11:40:19;13.10;;;6.53;;
15356;SDS011;7778;48.792;9.260;2023-04-19T11:43:06;11.88;;;7.30;;
15356;SDS011;7778;48.792;9.260;2023-04-19T11:45:51;14.18;;;7.78;;
15356;SDS011;7778;48.792;9.260;2023-04-19T11:48:38;14.13;;;7.65;;
15356;SDS011;7778;48.792;9.260;2023-04-19T11:51:34;13.52;;;7.82;;
15356;SDS011;7778;48.792;9.260;2023-04-19T11:54:21;14.55;;;8.10;;
15356;SDS011;7778;48.792;9.260;2023-04-19T11:57:08;14.20;;;7.82;;
15356;SDS011;7778;48.792;9.260;2023-04-19T12:00:03;14.75;;;8.48;;
15356;SDS011;7778;48.792;9.260;2023-04-19T12:02:53;13.77;;;8.07;;
15356;SDS011;7778;48.792;9.260;2023-04-19T12:05:39;13.82;;;9.18;;
15356;SDS011;7778;48.792;9.260;2023-04-19T12:08:37;16.20;;;9.77;;
15356;SDS011;7778;48.792;9.260;2023-04-19T12:11:41;16.30;;;10.07;;
15356;SDS011;7778;48.792;9.260;2023-04-19T12:14:28;16.55;;;9.35;;
15356;SDS011;7778;48.792;9.260;2023-04-19T12:17:14;16.35;;;8.95;;
15356;SDS011;7778;48.792;9.260;2023-04-19T12:20:00;16.75;;;9.60;;
15356;SDS011;7778;48.792;9.260;2023-04-19T12:22:46;16.73;;;10.45;;
15356;SDS011;7778;48.792;9.260;2023-04-19T12:25:32;19.65;;;10.48;;
15356;SDS011;7778;48.792;9.260;2023-04-19T12:28:21;19.92;;;11.02;;
15356;SDS011;7778;48.792;9.260;2023-04-19T12:31:07;19.85;;;10.57;;
15356;SDS011;7778;48.792;9.260;2023-04-19T12:33:53;15.45;;;9.65;;
15356;SDS011;7778;48.792;9.260;2023-04-19T12:36:39;19.55;;;11.13;;
15356;SDS011;7778;48.792;9.260;2023-04-19T12:39:25;20.52;;;10.98;;
15356;SDS011;7778;48.792;9.260;2023-04-19T12:42:11;17.98;;;10.27;;
15356;SDS011;7778;48.792;9.260;2023-04-19T12:44:58;21.88;;;10.45;;
15356;SDS011;7778;48.792;9.260;2023-04-19T12:47:44;21.33;;;10.88;;
15356;SDS011;7778;48.792;9.260;2023-04-19T12:50:30;19.17;;;10.88;;
15356;SDS011;7778;48.792;9.260;2023-04-19T12:53:16;16.27;;;9.85;;
15356;SDS011;7778;48.792;9.260;2023-04-19T12:56:02;19.42;;;10.23;;
15356;SDS011;7778;48.792;9.260;2023-04-19T12:58:48;18.10;;;10.13;;
15356;SDS011;7778;48.792;9.260;2023-04-19T13:01:35;18.25;;;10.50;;
15356;SDS011;7778;48.792;9.260;2023-04-19T13:04:21;18.23;;;10.18;;
15356;SDS011;7778;48.792;9.260;2023-04-19T13:07:06;16.20;;;10.13;;
15356;SDS011;7778;48.792;9.260;2023-04-19T13:09:52;13.65;;;8.40;;
15356;SDS011;7778;48.792;9.260;2023-04-19T13:12:38;14.88;;;8.48;;
15356;SDS011;7778;48.792;9.260;2023-04-19T13:15:24;17.75;;;8.70;;
15356;SDS011;7778;48.792;9.260;2023-04-19T13:18:12;10.20;;;5.72;;
15356;SDS011;7778;48.792;9.260;2023-04-19T13:20:58;15.15;;;8.45;;
15356;SDS011;7778;48.792;9.260;2023-04-19T13:23:44;12.05;;;6.00;;
15356;SDS011;7778;48.792;9.260;2023-04-19T13:26:29;15.27;;;7.85;;
15356;SDS011;7778;48.792;9.260;2023-04-19T13:29:16;13.55;;;8.23;;
15356;SDS011;7778;48.792;9.260;2023-04-19T13:32:03;9.77;;;5.47;;
15356;SDS011;7778;48.792;9.260;2023-04-19T13:34:56;6.35;;;3.65;;
15356;SDS011;7778;48.792;9.260;2023-04-19T13:37:41;12.95;;;6.85;;
15356;SDS011;7778;48.792;9.260;2023-04-19T13:40:29;11.85;;;6.90;;
15356;SDS011;7778;48.792;9.260;2023-04-19T13:43:15;11.05;;;6.75;;
15356;SDS011;7778;48.792;9.260;2023-04-19T13:46:00;11.13;;;6.65;;
15356;SDS011;7778;48.792;9.260;2023-04-19T13:48:46;11.00;;;6.88;;
15356;SDS011;7778;48.792;9.260;2023-04-19T13:51:33;10.32;;;6.78;;
15356;SDS011;7778;48.792;9.260;2023-04-19T13:54:18;11.32;;;6.50;;
15356;SDS011;7778;48.792;9.260;2023-04-19T13:57:04;12.63;;;6.68;;
15356;SDS011;7778;48.792;9.260;2023-04-19T13:59:50;11.05;;;6.78;;
15356;SDS011;7778;48.792;9.260;2023-04-19T14:02:36;12.73;;;6.15;;
15356;SDS011;7778;48.792;9.260;2023-04-19T14:05:22;11.73;;;7.28;;
15356;SDS011;7778;48.792;9.260;2023-04-19T14:08:08;11.32;;;7.50;;
15356;SDS011;7778;48.792;9.260;2023-04-19T14:10:54;13.77;;;7.97;;
15356;SDS011;7778;48.792;9.260;2023-04-19T14:13:39;12.18;;;7.28;;
15356;SDS011;7778;48.792;9.260;2023-04-19T14:16:25;12.88;;;6.85;;
15356;SDS011;7778;48.792;9.260;2023-04-19T14:19:11;10.05;;;6.68;;
15356;SDS011;7778;48.792;9.260;2023-04-19T14:21:56;13.20;;;7.90;;
15356;SDS011;7778;48.792;9.260;2023-04-19T14:24:43;10.95;;;6.35;;
15356;SDS011;7778;48.792;9.260;2023-04-19T14:27:29;12.23;;;6.30;;
15356;SDS011;7778;48.792;9.260;2023-04-19T14:30:15;13.40;;;7.22;;
15356;SDS011;7778;48.792;9.260;2023-04-19T14:33:01;11.50;;;7.05;;
15356;SDS011;7778;48.792;9.260;2023-04-19T14:35:47;16.25;;;7.72;;
15356;SDS011;7778;48.792;9.260;2023-04-19T14:38:33;10.32;;;6.75;;
15356;SDS011;7778;48.792;9.260;2023-04-19T14:41:20;10.38;;;6.25;;
15356;SDS011;7778;48.792;9.260;2023-04-19T14:44:06;10.82;;;6.80;;
15356;SDS011;7778;48.792;9.260;2023-04-19T14:46:52;14.23;;;7.72;;
15356;SDS011;7778;48.792;9.260;2023-04-19T14:49:37;15.45;;;6.95;;
15356;SDS011;7778;48.792;9.260;2023-04-19T14:52:23;10.15;;;6.22;;
15356;SDS011;7778;48.792;9.260;2023-04-19T14:55:09;11.75;;;7.15;;
15356;SDS011;7778;48.792;9.260;2023-04-19T14:57:56;11.63;;;6.82;;
15356;SDS011;7778;48.792;9.260;2023-04-19T15:00:42;10.38;;;6.13;;
15356;SDS011;7778;48.792;9.260;2023-04-19T15:03:28;11.93;;;7.13;;
15356;SDS011;7778;48.792;9.260;2023-04-19T15:06:14;10.15;;;6.65;;
15356;SDS011;7778;48.792;9.260;2023-04-19T15:08:59;9.85;;;6.25;;
15356;SDS011;7778;48.792;9.260;2023-04-19T15:11:45;9.80;;;5.97;;
15356;SDS011;7778;48.792;9.260;2023-04-19T15:14:32;9.93;;;5.63;;
15356;SDS011;7778;48.792;9.260;2023-04-19T15:17:18;10.23;;;5.70;;
15356;SDS011;7778;48.792;9.260;2023-04-19T15:20:03;9.43;;;5.65;;
15356;SDS011;7778;48.792;9.260;2023-04-19T15:22:50;10.52;;;6.35;;
15356;SDS011;7778;48.792;9.260;2023-04-19T15:25:36;11.85;;;6.57;;
15356;SDS011;7778;48.792;9.260;2023-04-19T15:28:22;12.10;;;6.95;;
15356;SDS011;7778;48.792;9.260;2023-04-19T15:31:10;8.68;;;5.85;;
15356;SDS011;7778;48.792;9.260;2023-04-19T15:33:56;10.63;;;6.82;;
15356;SDS011;7778;48.792;9.260;2023-04-19T15:36:44;12.20;;;6.85;;
15356;SDS011;7778;48.792;9.260;2023-04-19T15:39:30;11.48;;;6.70;;
15356;SDS011;7778;48.792;9.260;2023-04-19T15:42:16;12.38;;;6.75;;
15356;SDS011;7778;48.792;9.260;2023-04-19T15:45:01;13.73;;;7.53;;
15356;SDS011;7778;48.792;9.260;2023-04-19T15:47:49;14.00;;;7.15;;
15356;SDS011;7778;48.792;9.260;2023-04-19T15:50:35;11.90;;;7.68;;
15356;SDS011;7778;48.792;9.260;2023-04-19T15:53:21;10.10;;;6.25;;
15356;SDS011;7778;48.792;9.260;2023-04-19T15:56:06;13.27;;;7.45;;
15356;SDS011;7778;48.792;9.260;2023-04-19T15:58:52;12.85;;;7.03;;
15356;SDS011;7778;48.792;9.260;2023-04-19T16:01:38;10.27;;;6.97;;
15356;SDS011;7778;48.792;9.260;2023-04-19T16:04:25;11.82;;;7.05;;
15356;SDS011;7778;48.792;9.260;2023-04-19T16:07:11;11.23;;;6.68;;
15356;SDS011;7778;48.792;9.260;2023-04-19T16:09:56;10.43;;;6.55;;
15356;SDS011;7778;48.792;9.260;2023-04-19T16:12:42;11.77;;;6.72;;
15356;SDS011;7778;48.792;9.260;2023-04-19T16:15:28;11.52;;;7.07;;
15356;SDS011;7778;48.792;9.260;2023-04-19T16:18:14;10.35;;;6.35;;
15356;SDS011;7778;48.792;9.260;2023-04-19T16:21:01;10.63;;;7.13;;
15356;SDS011;7778;48.792;9.260;2023-04-19T16:23:47;10.95;;;6.43;;
15356;SDS011;7778;48.792;9.260;2023-04-19T16:26:33;11.23;;;7.00;;
15356;SDS011;7778;48.792;9.260;2023-04-19T16:29:18;9.95;;;6.05;;
15356;SDS011;7778;48.792;9.260;2023-04-19T16:32:04;10.98;;;6.15;;
15356;SDS011;7778;48.792;9.260;2023-04-19T16:34:50;11.18;;;7.35;;
15356;SDS011;7778;48.792;9.260;2023-04-19T16:37:37;15.73;;;8.05;;
15356;SDS011;7778;48.792;9.260;2023-04-19T16:40:23;16.77;;;8.48;;
15356;SDS011;7778;48.792;9.260;2023-04-19T16:43:09;14.05;;;7.82;;
15356;SDS011;7778;48.792;9.260;2023-04-19T16:45:54;13.07;;;8.50;;
15356;SDS011;7778;48.792;9.260;2023-04-19T16:48:40;14.73;;;8.02;;
15356;SDS011;7778;48.792;9.260;2023-04-19T16:51:26;11.60;;;7.50;;
15356;SDS011;7778;48.792;9.260;2023-04-19T16:54:13;13.55;;;7.78;;
15356;SDS011;7778;48.792;9.260;2023-04-19T16:56:58;14.40;;;7.82;;
15356;SDS011;7778;48.792;9.260;2023-04-19T16:59:45;14.18;;;7.47;;
15356;SDS011;7778;48.792;9.260;2023-04-19T17:02:31;12.68;;;7.70;;
15356;SDS011;7778;48.792;9.260;2023-04-19T17:05:17;12.88;;;8.00;;